Historique des mesures à Cassis (13260), France
Quotidien Résumé Aout 7, 2017 Unités:  Métrique    US   Métrique/US
« Précédent (Jour)
Suivant (Jour) »
Quotidien Hebdomadaire Mensuel Annuel Période au choix
  Maximum: Minimum: Moyenne:
Température: TemperatureC °C 21.3 °C 26.1 °C
Point de rosée: DewpointC °C 9.8 °C 12.1 °C
Humidité: Humidity % 31 % 39 %
Vitesse du vent: 0 km/h 0 km/h 8 km/h
Rafales: 0 km/h - -
Vent:- - South
Pression: PressurehPa hPa 1009.0 hPa -
Précipitations: 0.0 mm    
Historical Graphs
 
 
Mesures pour : Aout 7, 2017
Heure Temperature Point de rosée Pression Vent Vitesse du vent Rafales Humidité Pluie (par heure) Conditions
TemperatureC °C DewpointC °C PressurehPa hPa Calm     Humidity % HourlyPrecipMM mm SoftwareType W/m2
00:11 25.6 °C 10.6 °C 1009.4 hPa WNW 24.8 km/h 27.2 km/h 39 % 0.0 mm open2300-1.11 W/m2
01:11 24.9 °C 10.7 °C 1009.7 hPa NNW 16.3 km/h 16.3 km/h 41 % 0.0 mm open2300-1.11 W/m2
03:11 23.2 °C 9.9 °C 1009.4 hPa North 11.6 km/h 11.6 km/h 43 % 0.0 mm open2300-1.11 W/m2
04:11 22.4 °C 9.8 °C 1009.4 hPa NNW 27.7 km/h 40.7 km/h 45 % 0.0 mm open2300-1.11 W/m2
05:11 21.8 °C 9.9 °C 1009.4 hPa NW 15.6 km/h 18.7 km/h 47 % 0.0 mm open2300-1.11 W/m2
06:11 21.4 °C 9.9 °C 1009.4 hPa WNW 8 km/h 16.3 km/h 48 % 0.0 mm open2300-1.11 W/m2
07:11 21.3 °C 10.1 °C 1009.7 hPa NW 6.9 km/h 11.6 km/h 49 % 0.0 mm open2300-1.11 W/m2
08:11 26.0 °C 12.1 °C 1009.4 hPa ESE 6.9 km/h 9.8 km/h 42 % 0.0 mm open2300-1.11 W/m2
09:11 25.6 °C 11.7 °C 1009.7 hPa North 1.8 km/h 7.6 km/h 42 % 0.0 mm open2300-1.11 W/m2
10:11 25.9 °C 14.4 °C 1010.0 hPa SSE 5.1 km/h 6.4 km/h 49 % 0.0 mm open2300-1.11 W/m2
11:11 29.5 °C 16.7 °C 1010.0 hPa South 13.2 km/h 13.2 km/h 46 % 0.0 mm open2300-1.11 W/m2
12:11 31.9 °C 14.4 °C 1010.4 hPa WSW 4.7 km/h 11.6 km/h 35 % 0.0 mm open2300-1.11 W/m2
13:11 32.2 °C 14.2 °C 1011.1 hPa West 8.9 km/h 15 km/h 34 % 0.0 mm open2300-1.11 W/m2
14:11 31.9 °C 14.8 °C 1010.4 hPa South 3.4 km/h 9.8 km/h 36 % 0.0 mm open2300-1.11 W/m2
15:11 32.1 °C 12.8 °C 1010.0 hPa Calm   6.9 km/h 31 % 0.0 mm open2300-1.11 W/m2
16:11 31.9 °C 13.5 °C 1010.0 hPa SSW 12.2 km/h 12.2 km/h 33 % 0.0 mm open2300-1.11 W/m2
17:11 31.0 °C 15.0 °C 1009.4 hPa SSE 6.4 km/h 6.4 km/h 38 % 0.0 mm open2300-1.11 W/m2
18:11 30.8 °C 13.1 °C 1009.7 hPa East 5.1 km/h 11.6 km/h 34 % 0.0 mm open2300-1.11 W/m2
19:11 29.6 °C 14.2 °C 1009.0 hPa Calm   8 km/h 39 % 0.0 mm open2300-1.11 W/m2
20:11 28.3 °C 15.5 °C 1009.4 hPa SE 1.8 km/h 1.8 km/h 46 % 0.0 mm open2300-1.11 W/m2
22:11 26.3 °C 12.3 °C 1009.7 hPa NE 2.9 km/h 4.2 km/h 42 % 0.0 mm open2300-1.11 W/m2
23:11 25.9 °C 11.7 °C 1010.0 hPa NNE 1.8 km/h 1.8 km/h 41 % 0.0 mm open2300-1.11 W/m2
Observations météo à CASSIS
WU-History script by Weather Underground - 1 mb